Time;durP1;ratioP1;P1;durP2;ratioP2;P2;SDS_P1;SDS_P2;PMS_P1;PMS_P2;Temp;Humidity;BMP_temperature;BMP_pressure;BME280_temperature;BME280_humidity;BME280_pressure;Samples;Min_cycle;Max_cycle;Signal;HPM_P1;HPM_P2
2023/05/05 00:01:23;;;;;;;27.08;18.02;;;;;;;;;;6314434;27;20056;-79
2023/05/05 00:04:28;;;;;;;24.17;16.08;;;;;;;;;;6340052;27;20278;-79
2023/05/05 00:07:31;;;;;;;23.02;16.45;;;;;;;;;;6341440;28;20047;-79
2023/05/05 00:17:05;;;;;;;21.38;16.30;;;;;;;;;;6261652;28;20056;-79
2023/05/05 00:20:08;;;;;;;23.38;16.65;;;;;;;;;;6261464;28;20056;-79
2023/05/05 00:26:48;;;;;;;23.13;16.40;;;;;;;;;;6263218;28;20053;-78
2023/05/05 00:29:59;;;;;;;21.42;15.30;;;;;;;;;;6262471;28;20052;-82
2023/05/05 00:33:01;;;;;;;23.05;16.33;;;;;;;;;;6263261;28;20099;-79
2023/05/05 00:36:03;;;;;;;23.85;16.38;;;;;;;;;;6262041;28;20057;-78
2023/05/05 00:39:07;;;;;;;23.45;16.98;;;;;;;;;;6266292;28;20056;-79
2023/05/05 00:42:08;;;;;;;25.77;17.35;;;;;;;;;;6251229;28;20053;-79
2023/05/05 00:45:12;;;;;;;27.75;17.08;;;;;;;;;;6263027;28;20408;-79
2023/05/05 00:48:15;;;;;;;24.95;17.23;;;;;;;;;;6259904;28;20049;-78
2023/05/05 00:51:46;;;;;;;23.90;17.52;;;;;;;;;;6315490;27;20263;-78
2023/05/05 01:05:45;;;;;;;25.67;17.88;;;;;;;;;;6277540;28;20097;-78
2023/05/05 01:08:56;;;;;;;21.55;16.17;;;;;;;;;;6343645;28;20055;-78
2023/05/05 01:12:05;;;;;;;24.40;17.25;;;;;;;;;;6339559;27;20101;-78
2023/05/05 01:18:36;;;;;;;24.15;17.13;;;;;;;;;;6339334;28;20050;-79
2023/05/05 01:25:24;;;;;;;22.02;16.15;;;;;;;;;;6291546;28;20050;-78
2023/05/05 01:28:49;;;;;;;30.90;17.35;;;;;;;;;;6194564;28;20100;-79
2023/05/05 01:32:03;;;;;;;26.63;17.75;;;;;;;;;;6209316;28;20793;-78
2023/05/05 01:35:15;;;;;;;26.45;16.90;;;;;;;;;;6210838;28;20125;-78
2023/05/05 01:38:22;;;;;;;22.80;16.80;;;;;;;;;;6209700;28;20073;-79
2023/05/05 01:41:32;;;;;;;25.45;17.98;;;;;;;;;;6212906;28;20058;-79
2023/05/05 01:44:40;;;;;;;22.25;17.35;;;;;;;;;;6212528;28;20120;-79
2023/05/05 01:48:20;;;;;;;22.13;16.55;;;;;;;;;;6205151;28;20322;-78
2023/05/05 01:51:25;;;;;;;21.27;16.35;;;;;;;;;;6207856;28;20077;-79
2023/05/05 01:54:29;;;;;;;22.92;16.98;;;;;;;;;;6211195;28;20070;-78
2023/05/05 01:57:45;;;;;;;22.73;17.58;;;;;;;;;;6213323;28;20074;-77
2023/05/05 02:00:57;;;;;;;;;;;;;;;;;;;;;
2023/05/05 02:07:21;;;;;;;23.48;17.02;;;;;;;;;;6300088;28;20104;-78
2023/05/05 02:10:23;;;;;;;23.13;17.70;;;;;;;;;;6309243;28;20040;-79
2023/05/05 02:13:25;;;;;;;23.83;17.75;;;;;;;;;;6306546;28;20102;-78
2023/05/05 02:16:29;;;;;;;23.90;17.67;;;;;;;;;;6317589;28;20319;-78
2023/05/05 02:19:36;;;;;;;24.73;18.48;;;;;;;;;;6313923;28;20067;-78
2023/05/05 02:22:40;;;;;;;25.60;18.05;;;;;;;;;;6329039;28;20055;-78
2023/05/05 02:25:43;;;;;;;25.48;17.67;;;;;;;;;;6341038;28;20051;-79
2023/05/05 02:28:48;;;;;;;25.13;17.58;;;;;;;;;;6338591;28;20063;-78
2023/05/05 02:31:53;;;;;;;22.95;16.73;;;;;;;;;;6337817;28;20276;-78
2023/05/05 02:34:55;;;;;;;24.38;17.85;;;;;;;;;;6339258;28;20104;-79
2023/05/05 02:38:01;;;;;;;22.88;16.95;;;;;;;;;;6336597;28;20055;-78
2023/05/05 02:41:03;;;;;;;26.80;18.48;;;;;;;;;;6339901;28;20158;-78
2023/05/05 02:44:07;;;;;;;23.85;17.13;;;;;;;;;;6340439;28;20127;-79
2023/05/05 02:47:09;;;;;;;24.75;17.55;;;;;;;;;;6340634;28;20040;-78
2023/05/05 02:50:11;;;;;;;23.52;18.17;;;;;;;;;;6337013;28;20093;-79
2023/05/05 02:53:14;;;;;;;26.08;18.05;;;;;;;;;;6339741;28;20225;-79
2023/05/05 02:56:22;;;;;;;25.00;17.58;;;;;;;;;;6337888;28;20089;-79
2023/05/05 02:59:32;;;;;;;23.48;17.33;;;;;;;;;;6338882;28;20066;-78
2023/05/05 03:02:43;;;;;;;23.92;17.67;;;;;;;;;;6338128;28;20060;-78
2023/05/05 03:05:51;;;;;;;22.83;16.60;;;;;;;;;;6337675;28;20399;-79
2023/05/05 03:09:07;;;;;;;25.48;17.73;;;;;;;;;;6338676;28;20246;-78
2023/05/05 03:12:11;;;;;;;22.95;17.17;;;;;;;;;;6339442;28;20060;-78
2023/05/05 03:15:13;;;;;;;23.55;17.67;;;;;;;;;;6337687;28;20308;-79
2023/05/05 03:18:16;;;;;;;20.65;15.80;;;;;;;;;;6340588;28;20067;-79
2023/05/05 03:21:18;;;;;;;26.13;17.57;;;;;;;;;;6336833;28;20200;-77
2023/05/05 03:24:22;;;;;;;24.30;17.55;;;;;;;;;;6338246;28;20131;-77
2023/05/05 03:27:27;;;;;;;26.02;17.65;;;;;;;;;;6337401;28;20067;-78
2023/05/05 03:30:29;;;;;;;26.65;18.23;;;;;;;;;;6338356;28;20051;-76
2023/05/05 03:33:32;;;;;;;25.60;17.85;;;;;;;;;;6343406;27;20432;-78
2023/05/05 03:36:56;;;;;;;22.15;17.10;;;;;;;;;;6340686;28;20055;-78
2023/05/05 03:39:59;;;;;;;24.27;18.10;;;;;;;;;;6341605;28;20048;-79
2023/05/05 03:43:04;;;;;;;25.13;16.70;;;;;;;;;;6342599;27;20056;-79
2023/05/05 03:46:05;;;;;;;25.15;16.50;;;;;;;;;;6342930;28;20047;-79
2023/05/05 03:49:08;;;;;;;24.50;17.00;;;;;;;;;;6343314;28;20056;-79
2023/05/05 03:52:10;;;;;;;23.98;16.52;;;;;;;;;;6343119;27;20047;-79
2023/05/05 03:55:16;;;;;;;25.67;16.67;;;;;;;;;;6341606;27;20120;-79
2023/05/05 03:58:18;;;;;;;25.13;16.85;;;;;;;;;;6340332;27;20059;-79
2023/05/05 04:01:20;;;;;;;26.52;16.95;;;;;;;;;;6342092;27;20055;-78
2023/05/05 04:04:22;;;;;;;26.05;17.10;;;;;;;;;;6342559;27;20111;-78
2023/05/05 04:07:24;;;;;;;24.00;16.83;;;;;;;;;;6342266;27;20340;-79
2023/05/05 04:10:28;;;;;;;24.35;17.55;;;;;;;;;;6342186;27;20051;-79
2023/05/05 04:13:29;;;;;;;23.95;16.67;;;;;;;;;;6295535;28;20293;-79
2023/05/05 04:16:31;;;;;;;24.77;16.33;;;;;;;;;;6276414;28;20115;-79
2023/05/05 04:19:52;;;;;;;26.17;16.63;;;;;;;;;;6272585;28;20052;-79
2023/05/05 04:22:53;;;;;;;24.20;17.58;;;;;;;;;;6252243;28;20050;-79
2023/05/05 04:25:57;;;;;;;23.77;16.10;;;;;;;;;;6254722;28;20107;-79
2023/05/05 04:28:58;;;;;;;30.33;17.40;;;;;;;;;;6258704;28;20057;-79
2023/05/05 04:32:15;;;;;;;28.13;17.58;;;;;;;;;;6255778;28;20060;-79
2023/05/05 04:35:17;;;;;;;30.35;17.77;;;;;;;;;;6255039;28;20053;-79
2023/05/05 04:38:19;;;;;;;28.58;18.08;;;;;;;;;;6250282;28;20059;-78
2023/05/05 04:41:23;;;;;;;22.27;15.95;;;;;;;;;;6253858;28;20053;-79
2023/05/05 04:44:25;;;;;;;26.98;17.02;;;;;;;;;;6257398;28;20104;-79
2023/05/05 04:47:27;;;;;;;26.33;16.77;;;;;;;;;;6315049;28;20048;-79
2023/05/05 04:50:33;;;;;;;25.95;16.15;;;;;;;;;;6316811;28;20044;-79
2023/05/05 04:53:34;;;;;;;23.67;16.13;;;;;;;;;;6314919;28;20328;-79
2023/05/05 04:56:38;;;;;;;24.70;15.93;;;;;;;;;;6315871;28;20048;-79
2023/05/05 04:59:40;;;;;;;22.63;15.10;;;;;;;;;;6314673;28;20052;-78
2023/05/05 05:02:41;;;;;;;22.55;15.38;;;;;;;;;;6313714;28;20658;-79
2023/05/05 05:05:47;;;;;;;21.67;15.57;;;;;;;;;;6313495;28;20059;-78
2023/05/05 05:08:49;;;;;;;22.35;16.02;;;;;;;;;;6317094;28;20048;-81
2023/05/05 05:11:52;;;;;;;21.50;15.40;;;;;;;;;;6314585;28;20256;-83
2023/05/05 05:14:54;;;;;;;20.60;14.75;;;;;;;;;;6316460;28;20059;-80
2023/05/05 05:17:58;;;;;;;23.60;16.35;;;;;;;;;;6314205;28;20441;-82
2023/05/05 05:21:00;;;;;;;26.85;15.25;;;;;;;;;;6324973;27;20051;-81
2023/05/05 05:24:02;;;;;;;21.05;14.88;;;;;;;;;;6338389;27;20044;-81
2023/05/05 05:27:17;;;;;;;20.52;14.77;;;;;;;;;;6320192;27;20324;-80
2023/05/05 05:30:19;;;;;;;21.67;15.98;;;;;;;;;;6336909;28;20052;-78
2023/05/05 05:33:21;;;;;;;20.65;14.55;;;;;;;;;;6340863;28;20070;-82
2023/05/05 05:36:23;;;;;;;22.50;15.30;;;;;;;;;;6337304;27;20112;-81
2023/05/05 05:39:24;;;;;;;20.80;14.82;;;;;;;;;;6341265;28;20040;-82
2023/05/05 05:42:28;;;;;;;21.70;14.45;;;;;;;;;;6337157;27;20340;-82
2023/05/05 05:45:29;;;;;;;21.75;15.02;;;;;;;;;;6339845;27;20106;-81
2023/05/05 05:48:31;;;;;;;23.80;15.18;;;;;;;;;;6336118;27;20051;-82
2023/05/05 05:51:33;;;;;;;20.58;13.40;;;;;;;;;;6339937;28;20058;-80
2023/05/05 05:54:35;;;;;;;22.95;14.02;;;;;;;;;;6336193;27;20064;-82
2023/05/05 05:57:38;;;;;;;20.85;14.00;;;;;;;;;;6340756;28;20355;-82
2023/05/05 06:00:40;;;;;;;21.63;14.40;;;;;;;;;;6327639;27;20259;-82
2023/05/05 06:03:42;;;;;;;18.42;13.10;;;;;;;;;;6337011;28;20090;-82
2023/05/05 06:06:44;;;;;;;18.48;13.60;;;;;;;;;;6340216;27;20044;-82
2023/05/05 06:09:46;;;;;;;20.17;14.40;;;;;;;;;;6340783;28;20051;-82
2023/05/05 06:12:49;;;;;;;22.35;14.10;;;;;;;;;;6339862;27;20118;-82
2023/05/05 06:15:51;;;;;;;20.70;13.20;;;;;;;;;;6340727;27;20058;-81
2023/05/05 06:19:35;;;;;;;20.85;14.00;;;;;;;;;;6337997;28;20074;-82
2023/05/05 06:22:37;;;;;;;23.80;14.48;;;;;;;;;;6333317;27;20331;-82
2023/05/05 06:25:42;;;;;;;19.15;14.13;;;;;;;;;;6337902;28;20051;-83
2023/05/05 06:28:45;;;;;;;21.92;15.13;;;;;;;;;;6332082;27;20052;-83
2023/05/05 06:31:47;;;;;;;17.52;13.23;;;;;;;;;;6322567;28;20075;-81
2023/05/05 06:34:49;;;;;;;19.85;14.85;;;;;;;;;;6338114;28;20056;-82
2023/05/05 06:37:50;;;;;;;19.90;14.32;;;;;;;;;;6335187;28;20055;-82
2023/05/05 06:40:52;;;;;;;22.00;14.18;;;;;;;;;;6337359;28;20197;-82
2023/05/05 06:43:55;;;;;;;21.92;13.95;;;;;;;;;;6338714;28;20044;-81
2023/05/05 06:46:57;;;;;;;17.17;12.32;;;;;;;;;;6337879;28;20067;-82
2023/05/05 06:49:59;;;;;;;19.52;14.02;;;;;;;;;;6338834;28;20055;-82
2023/05/05 06:53:01;;;;;;;22.45;13.80;;;;;;;;;;6337901;28;20410;-82
2023/05/05 06:56:03;;;;;;;20.10;14.18;;;;;;;;;;6336487;28;20137;-83
2023/05/05 06:59:06;;;;;;;22.65;14.40;;;;;;;;;;6338094;28;20044;-82
2023/05/05 07:02:08;;;;;;;18.17;14.38;;;;;;;;;;6339587;28;20052;-82
2023/05/05 07:05:10;;;;;;;19.15;13.65;;;;;;;;;;6337338;28;20349;-82
2023/05/05 07:08:12;;;;;;;21.42;13.35;;;;;;;;;;6345861;28;20051;-83
2023/05/05 07:11:14;;;;;;;20.00;14.50;;;;;;;;;;6343934;28;20227;-82
2023/05/05 07:14:18;;;;;;;19.55;13.45;;;;;;;;;;6346289;28;20039;-82
2023/05/05 07:17:19;;;;;;;16.67;13.13;;;;;;;;;;6345932;28;20047;-82
2023/05/05 07:20:21;;;;;;;17.50;14.32;;;;;;;;;;6343340;28;20241;-82
2023/05/05 07:23:23;;;;;;;17.80;13.15;;;;;;;;;;6343456;28;20047;-81
2023/05/05 07:26:25;;;;;;;16.98;13.57;;;;;;;;;;6341281;28;20048;-82
2023/05/05 07:29:28;;;;;;;20.42;13.70;;;;;;;;;;6342124;28;20340;-83
2023/05/05 07:32:30;;;;;;;21.25;15.38;;;;;;;;;;6342055;28;20056;-82
2023/05/05 07:35:32;;;;;;;17.35;13.30;;;;;;;;;;6341967;28;20114;-82
2023/05/05 07:38:33;;;;;;;16.80;12.82;;;;;;;;;;6341633;28;20044;-81
2023/05/05 07:41:35;;;;;;;16.88;12.15;;;;;;;;;;6340955;28;20047;-82
2023/05/05 07:44:38;;;;;;;17.60;12.40;;;;;;;;;;6342817;28;20055;-81
2023/05/05 07:47:40;;;;;;;17.42;13.10;;;;;;;;;;6344338;28;20051;-81
2023/05/05 07:50:42;;;;;;;14.98;11.38;;;;;;;;;;6341068;28;20048;-82
2023/05/05 07:53:43;;;;;;;14.32;10.50;;;;;;;;;;6342523;28;20181;-82
2023/05/05 07:56:45;;;;;;;17.33;11.73;;;;;;;;;;6344373;28;20047;-83
2023/05/05 07:59:48;;;;;;;11.98;9.93;;;;;;;;;;6341544;28;20043;-82
2023/05/05 08:02:50;;;;;;;12.52;8.93;;;;;;;;;;6341628;27;20050;-83
2023/05/05 08:05:53;;;;;;;13.57;9.93;;;;;;;;;;6343681;28;20124;-81
2023/05/05 08:08:55;;;;;;;19.23;10.93;;;;;;;;;;6345369;28;20065;-82
2023/05/05 08:11:57;;;;;;;11.48;9.35;;;;;;;;;;6341771;28;20335;-82
2023/05/05 08:15:03;;;;;;;12.38;10.60;;;;;;;;;;6339518;28;20062;-82
2023/05/05 08:18:05;;;;;;;12.27;9.25;;;;;;;;;;6339804;27;20047;-81
2023/05/05 08:21:13;;;;;;;14.35;9.85;;;;;;;;;;6341434;28;20055;-82
2023/05/05 08:24:15;;;;;;;13.38;10.13;;;;;;;;;;6340020;28;20063;-82
2023/05/05 08:27:20;;;;;;;11.27;9.88;;;;;;;;;;6340906;28;20056;-82
2023/05/05 08:30:23;;;;;;;17.77;12.18;;;;;;;;;;6340306;28;20136;-82
2023/05/05 08:33:25;;;;;;;16.98;10.82;;;;;;;;;;6340727;28;20387;-82
2023/05/05 08:36:27;;;;;;;11.85;9.57;;;;;;;;;;6342190;27;20047;-82
2023/05/05 08:39:35;;;;;;;20.58;11.95;;;;;;;;;;6340134;28;20051;-82
2023/05/05 08:42:37;;;;;;;14.07;12.00;;;;;;;;;;6340228;28;20063;-82
2023/05/05 08:46:01;;;;;;;12.68;10.57;;;;;;;;;;6337581;28;20056;-82
2023/05/05 08:49:05;;;;;;;15.23;11.38;;;;;;;;;;6345665;27;20107;-82
2023/05/05 08:52:16;;;;;;;11.95;10.63;;;;;;;;;;6341848;27;20150;-83
2023/05/05 08:55:22;;;;;;;16.00;11.07;;;;;;;;;;6339589;27;20056;-82
2023/05/05 08:58:24;;;;;;;14.45;11.65;;;;;;;;;;6338573;28;20077;-81
2023/05/05 09:01:28;;;;;;;17.05;11.07;;;;;;;;;;6342841;28;20066;-82
2023/05/05 09:04:29;;;;;;;15.50;11.82;;;;;;;;;;6338787;28;20346;-82
2023/05/05 09:07:32;;;;;;;13.43;11.00;;;;;;;;;;6339957;28;20054;-82
2023/05/05 09:10:34;;;;;;;14.13;11.25;;;;;;;;;;6338949;28;20077;-82
2023/05/05 09:13:36;;;;;;;14.23;11.83;;;;;;;;;;6339555;27;20052;-82
2023/05/05 09:16:43;;;;;;;13.00;11.60;;;;;;;;;;6339658;28;20464;-82
2023/05/05 09:20:03;;;;;;;14.98;12.98;;;;;;;;;;6337622;28;20121;-82
2023/05/05 09:23:09;;;;;;;15.45;11.38;;;;;;;;;;6314192;28;20036;-82
2023/05/05 09:26:11;;;;;;;14.25;10.55;;;;;;;;;;6312908;28;20055;-81
2023/05/05 09:29:20;;;;;;;12.35;9.82;;;;;;;;;;6313355;28;20052;-82
2023/05/05 09:32:29;;;;;;;12.77;9.63;;;;;;;;;;6312027;28;20044;-81
2023/05/05 09:35:50;;;;;;;13.90;10.27;;;;;;;;;;6315237;28;20055;-82
2023/05/05 09:39:05;;;;;;;10.90;9.30;;;;;;;;;;6312876;28;20117;-82
2023/05/05 09:42:07;;;;;;;9.75;8.50;;;;;;;;;;6311701;28;20059;-82
2023/05/05 09:45:26;;;;;;;10.02;9.02;;;;;;;;;;6311683;28;20115;-82
2023/05/05 09:48:30;;;;;;;10.60;8.63;;;;;;;;;;6314114;28;20056;-81
2023/05/05 09:51:35;;;;;;;11.30;9.43;;;;;;;;;;6314619;28;20040;-81
2023/05/05 09:54:37;;;;;;;9.95;8.80;;;;;;;;;;6313018;28;20052;-81
2023/05/05 09:58:04;;;;;;;11.65;10.45;;;;;;;;;;6318785;28;20055;-82
2023/05/05 10:01:05;;;;;;;12.60;11.30;;;;;;;;;;6310168;28;20059;-80
2023/05/05 10:04:43;;;;;;;12.85;11.38;;;;;;;;;;6319941;28;20052;-81
2023/05/05 10:08:15;;;;;;;13.45;10.02;;;;;;;;;;6312993;28;20107;-82
2023/05/05 10:11:20;;;;;;;11.40;9.80;;;;;;;;;;6316404;28;20124;-81
2023/05/05 10:14:53;;;;;;;10.98;9.70;;;;;;;;;;6310876;28;20071;-81
2023/05/05 10:17:56;;;;;;;16.73;11.30;;;;;;;;;;6308668;28;20086;-82
2023/05/05 10:21:01;;;;;;;13.02;10.65;;;;;;;;;;6321918;28;20063;-82
2023/05/05 10:24:09;;;;;;;12.50;11.25;;;;;;;;;;6318978;28;20060;-82
2023/05/05 10:27:13;;;;;;;14.27;11.90;;;;;;;;;;6336599;28;20055;-83
2023/05/05 10:30:19;;;;;;;12.77;11.25;;;;;;;;;;6335373;28;20050;-83
2023/05/05 10:33:35;;;;;;;12.18;8.45;;;;;;;;;;6326508;28;20055;-81
2023/05/05 10:37:15;;;;;;;12.15;10.95;;;;;;;;;;6335299;28;20069;-83
2023/05/05 10:40:20;;;;;;;10.88;9.75;;;;;;;;;;6326578;28;20055;-80
2023/05/05 10:43:28;;;;;;;9.95;8.90;;;;;;;;;;6336778;28;20054;-81
2023/05/05 10:46:30;;;;;;;113.88;92.53;;;;;;;;;;6339517;28;20074;-81
2023/05/05 10:49:37;;;;;;;69.78;48.75;;;;;;;;;;6338372;28;20051;-81
2023/05/05 10:52:43;;;;;;;52.75;36.50;;;;;;;;;;6336667;28;20899;-81
2023/05/05 10:55:57;;;;;;;29.73;22.00;;;;;;;;;;6340341;28;20354;-80
2023/05/05 10:59:05;;;;;;;16.10;12.50;;;;;;;;;;6340474;28;20059;-80
2023/05/05 11:02:19;;;;;;;21.05;15.02;;;;;;;;;;6337938;28;20047;-81
2023/05/05 11:05:23;;;;;;;14.10;12.60;;;;;;;;;;6340551;28;20381;-81
2023/05/05 11:08:25;;;;;;;13.52;11.13;;;;;;;;;;6308126;28;20075;-79
2023/05/05 11:15:34;;;;;;;14.20;11.00;;;;;;;;;;6332411;27;20627;-79
2023/05/05 11:18:38;;;;;;;13.82;12.43;;;;;;;;;;6266866;28;20041;-79
2023/05/05 11:21:59;;;;;;;14.68;11.60;;;;;;;;;;6266284;28;20048;-78
2023/05/05 11:25:01;;;;;;;13.13;11.73;;;;;;;;;;6265987;28;20038;-79
2023/05/05 11:28:07;;;;;;;14.07;12.33;;;;;;;;;;6262731;28;20056;-78
2023/05/05 11:31:31;;;;;;;11.43;10.25;;;;;;;;;;6270193;28;20299;-79
2023/05/05 11:34:34;;;;;;;10.43;9.38;;;;;;;;;;6265087;28;20148;-80
2023/05/05 11:37:37;;;;;;;11.88;10.15;;;;;;;;;;6266389;28;20057;-79
2023/05/05 11:40:42;;;;;;;12.60;11.40;;;;;;;;;;6265811;28;20068;-79
2023/05/05 11:43:44;;;;;;;14.25;12.73;;;;;;;;;;6267131;28;20073;-79
2023/05/05 11:47:23;;;;;;;13.00;11.65;;;;;;;;;;6264273;28;20049;-78
2023/05/05 11:50:33;;;;;;;14.13;11.60;;;;;;;;;;6264765;28;20045;-79
2023/05/05 11:53:35;;;;;;;15.70;13.40;;;;;;;;;;6264224;28;20333;-79
2023/05/05 11:56:58;;;;;;;16.38;13.50;;;;;;;;;;6264240;28;20052;-78
2023/05/05 12:00:02;;;;;;;15.10;12.55;;;;;;;;;;6264426;28;20057;-80
2023/05/05 12:03:04;;;;;;;13.77;12.15;;;;;;;;;;6266417;28;20053;-81
2023/05/05 12:06:08;;;;;;;10.55;9.55;;;;;;;;;;6264227;28;20052;-79
2023/05/05 12:09:15;;;;;;;10.98;9.73;;;;;;;;;;6269926;28;20206;-80
2023/05/05 12:12:17;;;;;;;21.08;18.85;;;;;;;;;;6263376;28;20057;-84
2023/05/05 12:15:28;;;;;;;28.50;23.42;;;;;;;;;;6266403;28;20061;-83
2023/05/05 12:18:30;;;;;;;13.25;11.65;;;;;;;;;;6264201;28;20057;-82
2023/05/05 12:21:33;;;;;;;12.90;10.30;;;;;;;;;;6265797;28;20094;-80
2023/05/05 12:28:02;;;;;;;11.98;10.68;;;;;;;;;;6245561;28;20122;-81
2023/05/05 12:31:07;;;;;;;11.38;10.27;;;;;;;;;;6251294;28;20085;-81
2023/05/05 12:34:10;;;;;;;12.52;11.27;;;;;;;;;;6246390;28;20328;-81
2023/05/05 12:37:15;;;;;;;9.55;8.55;;;;;;;;;;6245208;28;20209;-81
2023/05/05 12:40:42;;;;;;;9.07;7.75;;;;;;;;;;6246802;28;20049;-81
2023/05/05 12:43:57;;;;;;;8.55;7.20;;;;;;;;;;6250179;28;20080;-81
2023/05/05 12:50:29;;;;;;;8.65;7.20;;;;;;;;;;6247475;28;20403;-81
2023/05/05 12:53:33;;;;;;;8.98;8.07;;;;;;;;;;6247454;28;20062;-82
2023/05/05 12:56:36;;;;;;;9.75;8.73;;;;;;;;;;6247633;28;20214;-80
2023/05/05 12:59:38;;;;;;;11.15;7.72;;;;;;;;;;6247001;28;20274;-81
2023/05/05 13:02:44;;;;;;;9.38;7.55;;;;;;;;;;6247075;28;20592;-82
2023/05/05 13:06:00;;;;;;;8.25;7.50;;;;;;;;;;6247035;28;20049;-80
2023/05/05 13:09:03;;;;;;;7.93;6.25;;;;;;;;;;6299542;28;20045;-82
2023/05/05 13:12:07;;;;;;;11.10;7.78;;;;;;;;;;6295917;28;20067;-79
2023/05/05 13:15:10;;;;;;;8.25;7.25;;;;;;;;;;6297338;28;20059;-82
2023/05/05 13:18:12;;;;;;;9.48;7.75;;;;;;;;;;6294536;28;20052;-81
2023/05/05 13:21:15;;;;;;;11.95;6.60;;;;;;;;;;6296951;28;20382;-81
2023/05/05 13:24:18;;;;;;;7.97;6.35;;;;;;;;;;6295696;28;20056;-81
2023/05/05 13:27:20;;;;;;;10.77;7.15;;;;;;;;;;6295737;28;20056;-77
2023/05/05 13:30:22;;;;;;;7.03;5.50;;;;;;;;;;6297164;28;20293;-77
2023/05/05 13:33:24;;;;;;;8.65;7.40;;;;;;;;;;6297338;28;20116;-79
2023/05/05 13:36:30;;;;;;;12.10;7.85;;;;;;;;;;6294676;28;20076;-79
2023/05/05 13:39:59;;;;;;;8.50;6.43;;;;;;;;;;6285618;28;20105;-79
2023/05/05 13:43:01;;;;;;;10.82;7.15;;;;;;;;;;6295064;28;20345;-80
2023/05/05 13:46:13;;;;;;;11.63;6.57;;;;;;;;;;6296801;28;20107;-79
2023/05/05 13:49:20;;;;;;;7.50;6.80;;;;;;;;;;6295065;28;20052;-79
2023/05/05 13:52:23;;;;;;;8.70;7.25;;;;;;;;;;6280723;28;20463;-80
2023/05/05 13:55:28;;;;;;;7.85;5.97;;;;;;;;;;6282008;28;20051;-79
2023/05/05 13:58:47;;;;;;;7.15;6.18;;;;;;;;;;6296503;28;20037;-79
2023/05/05 14:01:49;;;;;;;8.55;7.60;;;;;;;;;;6294190;28;20049;-79
2023/05/05 14:08:07;;;;;;;21.25;15.10;;;;;;;;;;6290779;28;20060;-84
2023/05/05 14:11:10;;;;;;;14.25;10.02;;;;;;;;;;6298497;28;20064;-82
2023/05/05 14:14:15;;;;;;;12.80;9.80;;;;;;;;;;6287622;28;20575;-83
2023/05/05 14:20:33;;;;;;;51.95;32.35;;;;;;;;;;6293989;28;20115;-83
2023/05/05 14:23:35;;;;;;;150.15;95.53;;;;;;;;;;6295561;28;20052;-80
2023/05/05 14:26:38;;;;;;;14.68;7.68;;;;;;;;;;6295024;28;20105;-80
2023/05/05 14:29:40;;;;;;;6.93;6.22;;;;;;;;;;6299322;28;20128;-78
2023/05/05 14:32:42;;;;;;;;;;;;;;;;;;6303494;28;20232;-79
2023/05/05 14:35:44;;;;;;;9.50;5.30;;;;;;;;;;6303657;28;20007;-80
2023/05/05 14:38:45;;;;;;;8.73;6.03;;;;;;;;;;6297875;28;20060;-79
2023/05/05 14:41:50;;;;;;;11.35;5.90;;;;;;;;;;6292711;28;20072;-80
2023/05/05 14:44:53;;;;;;;9.38;5.55;;;;;;;;;;6293030;28;20154;-80
2023/05/05 14:47:58;;;;;;;14.27;5.70;;;;;;;;;;6292762;28;20121;-79
2023/05/05 14:51:00;;;;;;;7.18;5.60;;;;;;;;;;6281946;28;20052;-80
2023/05/05 14:54:02;;;;;;;6.72;5.75;;;;;;;;;;6295170;28;20091;-81
2023/05/05 14:57:05;;;;;;;17.63;5.43;;;;;;;;;;6292643;28;20057;-79
2023/05/05 15:03:24;;;;;;;7.43;4.55;;;;;;;;;;6282959;28;20119;-79
2023/05/05 15:06:26;;;;;;;5.40;3.90;;;;;;;;;;6290840;28;20055;-79
2023/05/05 15:09:28;;;;;;;13.07;4.97;;;;;;;;;;6297669;28;20048;-80
2023/05/05 15:12:32;;;;;;;16.15;5.97;;;;;;;;;;6294601;28;20060;-80
2023/05/05 15:15:34;;;;;;;15.10;4.85;;;;;;;;;;6295152;28;20313;-80
2023/05/05 15:18:36;;;;;;;5.38;4.60;;;;;;;;;;6293264;28;20040;-80
2023/05/05 15:21:37;;;;;;;;;;;;;;;;;;6292704;28;20062;-80
2023/05/05 15:24:39;;;;;;;8.98;5.20;;;;;;;;;;6290352;28;19917;-80
2023/05/05 15:27:43;;;;;;;8.13;5.35;;;;;;;;;;6294960;28;20132;-80
2023/05/05 15:30:48;;;;;;;17.92;5.43;;;;;;;;;;6293228;28;20072;-79
2023/05/05 15:33:53;;;;;;;12.60;5.78;;;;;;;;;;6296505;28;20055;-79
2023/05/05 15:36:59;;;;;;;8.65;4.22;;;;;;;;;;6292370;28;20045;-79
2023/05/05 15:40:06;;;;;;;7.85;5.22;;;;;;;;;;6293817;28;20323;-81
2023/05/05 15:43:10;;;;;;;51.00;44.00;;;;;;;;;;6296702;28;20048;-81
2023/05/05 15:46:12;;;;;;;40.28;31.70;;;;;;;;;;6294625;28;20055;-82
2023/05/05 15:49:15;;;;;;;8.43;6.50;;;;;;;;;;6296491;28;20052;-79
2023/05/05 15:52:21;;;;;;;7.30;4.72;;;;;;;;;;6294380;28;20052;-76
2023/05/05 15:55:23;;;;;;;7.88;4.85;;;;;;;;;;6287066;28;20064;-80
2023/05/05 15:58:36;;;;;;;9.15;5.63;;;;;;;;;;6293857;28;20079;-79
2023/05/05 16:01:38;;;;;;;5.47;4.70;;;;;;;;;;6295952;28;20056;-79
2023/05/05 16:04:40;;;;;;;6.00;5.40;;;;;;;;;;6287173;28;20297;-79
2023/05/05 16:07:43;;;;;;;7.30;5.13;;;;;;;;;;6297279;28;20049;-79
2023/05/05 16:10:45;;;;;;;12.13;5.82;;;;;;;;;;6295580;28;20102;-79
2023/05/05 16:13:51;;;;;;;6.40;5.00;;;;;;;;;;6284866;28;20057;-79
2023/05/05 16:16:53;;;;;;;9.23;4.45;;;;;;;;;;6275528;28;20056;-79
2023/05/05 16:19:55;;;;;;;8.35;4.30;;;;;;;;;;6272628;28;20060;-79
2023/05/05 16:22:58;;;;;;;7.25;4.75;;;;;;;;;;6273372;28;20081;-81
2023/05/05 16:26:00;;;;;;;6.10;5.50;;;;;;;;;;6273214;28;20067;-80
2023/05/05 16:29:03;;;;;;;5.93;4.93;;;;;;;;;;6271903;28;20119;-79
2023/05/05 16:32:10;;;;;;;8.57;4.78;;;;;;;;;;6271946;28;20232;-80
2023/05/05 16:35:12;;;;;;;8.43;4.80;;;;;;;;;;6270104;28;20079;-80
2023/05/05 16:38:20;;;;;;;17.48;4.82;;;;;;;;;;6272388;28;20061;-80
2023/05/05 16:41:22;;;;;;;5.55;3.90;;;;;;;;;;6271155;28;21132;-80
2023/05/05 16:44:25;;;;;;;6.03;4.00;;;;;;;;;;6271974;28;20048;-79
2023/05/05 16:47:28;;;;;;;9.68;3.95;;;;;;;;;;6270427;28;20061;-80
2023/05/05 16:54:07;;;;;;;5.88;4.50;;;;;;;;;;6266637;28;20075;-80
2023/05/05 16:57:13;;;;;;;5.25;4.50;;;;;;;;;;6272205;28;20051;-81
2023/05/05 17:00:21;;;;;;;7.32;4.05;;;;;;;;;;6269806;28;20100;-80
2023/05/05 17:03:32;;;;;;;8.38;4.30;;;;;;;;;;6266879;28;20116;-81
2023/05/05 17:06:33;;;;;;;5.13;4.03;;;;;;;;;;6265715;28;20108;-78
2023/05/05 17:09:38;;;;;;;4.50;4.00;;;;;;;;;;6267897;28;20087;-81
2023/05/05 17:12:40;;;;;;;5.65;3.80;;;;;;;;;;6274371;28;20048;-81
2023/05/05 17:15:53;;;;;;;4.40;4.00;;;;;;;;;;6293075;28;20252;-82
2023/05/05 17:19:01;;;;;;;;;;;;;;;;;;6296732;28;20367;-82
2023/05/05 17:22:03;;;;;;;3.70;3.10;;;;;;;;;;6294081;28;19970;-82
2023/05/05 17:25:05;;;;;;;4.50;3.83;;;;;;;;;;6296524;28;20088;-82
2023/05/05 17:28:08;;;;;;;6.10;3.72;;;;;;;;;;6295923;28;20047;-83
2023/05/05 17:31:17;;;;;;;7.30;3.93;;;;;;;;;;6300245;28;20057;-82
2023/05/05 17:34:19;;;;;;;4.68;3.35;;;;;;;;;;6296435;28;20048;-78
2023/05/05 17:37:21;;;;;;;8.32;3.78;;;;;;;;;;6292705;28;20117;-83
2023/05/05 17:40:23;;;;;;;6.40;3.83;;;;;;;;;;6293857;28;20056;-83
2023/05/05 17:43:25;;;;;;;3.55;3.20;;;;;;;;;;6296315;28;20336;-81
2023/05/05 17:46:29;;;;;;;4.35;3.65;;;;;;;;;;6294386;28;20344;-82
2023/05/05 17:49:31;;;;;;;5.97;3.47;;;;;;;;;;6294611;28;20067;-83
2023/05/05 17:52:35;;;;;;;4.60;3.10;;;;;;;;;;6293702;28;20058;-77
2023/05/05 17:55:37;;;;;;;7.30;3.30;;;;;;;;;;6293875;28;20345;-82
2023/05/05 17:58:41;;;;;;;5.47;3.58;;;;;;;;;;6283533;28;20048;-83
2023/05/05 18:01:44;;;;;;;7.60;3.70;;;;;;;;;;6297600;28;20340;-79
2023/05/05 18:04:48;;;;;;;4.68;3.42;;;;;;;;;;6299146;28;20056;-78
2023/05/05 18:07:50;;;;;;;4.15;3.75;;;;;;;;;;6300755;28;20052;-82
2023/05/05 18:10:53;;;;;;;5.25;4.00;;;;;;;;;;6301025;28;20251;-77
2023/05/05 18:13:55;;;;;;;;;;;;;;;;;;6301209;28;20248;-80
2023/05/05 18:16:58;;;;;;;9.50;5.07;;;;;;;;;;6299531;28;19970;-83
2023/05/05 18:20:12;;;;;;;7.45;4.05;;;;;;;;;;6301368;28;20048;-79
2023/05/05 18:23:32;;;;;;;8.02;3.75;;;;;;;;;;6299530;28;20048;-79
2023/05/05 18:26:34;;;;;;;5.13;3.83;;;;;;;;;;6296915;28;20116;-80
2023/05/05 18:29:36;;;;;;;5.00;3.70;;;;;;;;;;6298083;28;20056;-78
2023/05/05 18:32:39;;;;;;;8.25;4.00;;;;;;;;;;6297589;28;20347;-80
2023/05/05 18:35:41;;;;;;;4.28;3.85;;;;;;;;;;6302662;28;20044;-78
2023/05/05 18:38:43;;;;;;;4.55;3.45;;;;;;;;;;6298148;28;20056;-86
2023/05/05 18:41:45;;;;;;;5.65;3.65;;;;;;;;;;6295818;28;20079;-80
2023/05/05 18:44:55;;;;;;;6.28;3.97;;;;;;;;;;6300379;28;20048;-81
2023/05/05 18:48:00;;;;;;;4.75;3.75;;;;;;;;;;6301033;28;20048;-81
2023/05/05 18:51:41;;;;;;;7.43;4.80;;;;;;;;;;6297845;28;20067;-85
2023/05/05 18:58:24;;;;;;;6.18;4.57;;;;;;;;;;6298665;28;20170;-83
2023/05/05 19:01:26;;;;;;;11.10;5.40;;;;;;;;;;6297284;28;20285;-83
2023/05/05 19:04:30;;;;;;;8.18;4.07;;;;;;;;;;6300339;28;20066;-82
2023/05/05 19:07:34;;;;;;;6.65;4.85;;;;;;;;;;6299187;28;20063;-84
2023/05/05 19:10:36;;;;;;;8.90;4.72;;;;;;;;;;6296800;28;20114;-80
2023/05/05 19:13:41;;;;;;;8.45;4.50;;;;;;;;;;6299685;28;20063;-80